createdAt,value
2018-06-13T00:00:40.703Z,83.13
2018-06-13T00:01:49.854Z,83.8
2018-06-13T00:02:58.716Z,82.94
2018-06-13T00:04:07.575Z,83.13
2018-06-13T00:05:16.710Z,82.46
2018-06-13T00:06:25.570Z,82.65
2018-06-13T00:07:34.430Z,82.65
2018-06-13T00:08:43.288Z,82.75
2018-06-13T00:09:52.144Z,82.46
2018-06-13T00:11:01.356Z,81.7
2018-06-13T00:12:10.216Z,80.8
2018-06-13T00:13:19.079Z,80.41
2018-06-13T00:14:27.937Z,80.22
2018-06-13T00:15:37.068Z,79.94
2018-06-13T00:16:46.030Z,78.7
2018-06-13T00:17:54.891Z,78.79
2018-06-13T00:19:03.749Z,79.98
2018-06-13T00:20:12.609Z,78.45
2018-06-13T00:21:21.469Z,78.55
2018-06-13T00:22:30.326Z,77.65
2018-06-13T00:23:39.186Z,77.97
2018-06-13T00:24:48.043Z,78.16
2018-06-13T00:25:57.185Z,77.01
2018-06-13T00:27:06.044Z,77.11
2018-06-13T00:28:15.354Z,76.79
2018-06-13T00:29:24.211Z,76.54
2018-06-13T00:30:33.074Z,75.93
2018-06-13T00:31:41.928Z,74.78
2018-06-13T00:32:50.787Z,74.88
2018-06-13T00:33:59.750Z,74.53
2018-06-13T00:35:08.611Z,76.16
2018-06-13T00:36:17.476Z,75.74
2018-06-13T00:37:26.337Z,76.4
2018-06-13T00:38:35.472Z,75.78
2018-06-13T00:39:44.332Z,76.03
2018-06-13T00:40:53.465Z,76.03
2018-06-13T00:42:02.324Z,76.35
2018-06-13T00:43:11.459Z,76.54
2018-06-13T00:44:20.320Z,76.25
2018-06-13T00:45:29.281Z,76.35
2018-06-13T00:46:38.791Z,76.45
2018-06-13T00:47:47.650Z,76.35
2018-06-13T00:48:57.063Z,76.4
2018-06-13T00:50:06.192Z,76.45
2018-06-13T00:51:15.529Z,76.25
2018-06-13T00:52:24.392Z,76.31
2018-06-13T00:53:33.255Z,76.5
2018-06-13T00:54:42.115Z,76.31
2018-06-13T00:55:50.975Z,76.03
2018-06-13T00:57:00.260Z,75.74
2018-06-13T00:58:09.399Z,75.93
2018-06-13T00:59:18.583Z,75.83
2018-06-13T01:00:27.720Z,76.31
2018-06-13T01:01:36.578Z,76.21
2018-06-13T01:02:45.538Z,76.5
2018-06-13T01:03:54.397Z,76.4
2018-06-13T01:05:03.263Z,76.03
2018-06-13T01:06:12.123Z,75.54
2018-06-13T01:07:20.984Z,75.93
2018-06-13T01:08:29.997Z,76.21
2018-06-13T01:09:38.860Z,75.74
2018-06-13T01:10:47.719Z,76.21
2018-06-13T01:11:56.581Z,75.54
2018-06-13T01:13:05.989Z,75.64
2018-06-13T01:14:14.851Z,75.64
2018-06-13T01:15:23.708Z,75.74
2018-06-13T01:16:32.843Z,75.45
2018-06-13T01:17:41.703Z,75.64
2018-06-13T01:18:50.838Z,75.45
2018-06-13T01:20:00.402Z,75.54
2018-06-13T01:21:09.534Z,75.54
2018-06-13T01:22:18.393Z,75.16
2018-06-13T01:23:27.254Z,75.64
2018-06-13T01:24:36.114Z,75.83
2018-06-13T01:25:44.973Z,75.93
2018-06-13T01:26:54.110Z,75.45
2018-06-13T01:28:02.971Z,75.64
2018-06-13T01:29:11.847Z,75.64
2018-06-13T01:30:20.693Z,75.54
2018-06-13T01:31:29.802Z,75.83
2018-06-13T01:32:38.660Z,76.5
2018-06-13T01:33:47.522Z,75.54
2018-06-13T01:34:56.379Z,76.03
2018-06-13T01:36:05.241Z,75.45
2018-06-13T01:37:14.148Z,75.26
2018-06-13T01:38:23.011Z,75.45
2018-06-13T01:39:31.869Z,75.35
2018-06-13T01:40:41.001Z,75.07
2018-06-13T01:41:49.860Z,74.78
2018-06-13T01:42:58.870Z,74.98
2018-06-13T01:44:07.726Z,75.64
2018-06-13T01:45:16.586Z,75.64
2018-06-13T01:46:25.443Z,75.16
2018-06-13T01:47:34.305Z,75.45
2018-06-13T01:48:43.690Z,75.26
2018-06-13T01:49:52.549Z,75.45
2018-06-13T01:51:01.409Z,75.51
2018-06-13T01:52:10.268Z,75.54
2018-06-13T01:53:19.130Z,75.64
2018-06-13T01:54:28.791Z,75.74
2018-06-13T01:55:37.654Z,76.12
2018-06-13T01:56:46.512Z,75.54
2018-06-13T01:57:55.377Z,75.54
2018-06-13T01:59:04.230Z,75.64
2018-06-13T02:00:13.240Z,75.64
2018-06-13T02:01:22.655Z,75.54
2018-06-13T02:02:31.516Z,75.64
2018-06-13T02:03:40.374Z,75.64
2018-06-13T02:04:49.512Z,75.83
2018-06-13T02:05:58.720Z,75.64
2018-06-13T02:07:07.578Z,75.74
2018-06-13T02:08:16.990Z,76.12
2018-06-13T02:09:25.850Z,75.93
2018-06-13T02:10:34.709Z,76.03
2018-06-13T02:11:43.566Z,75.93
2018-06-13T02:12:52.423Z,75.7
2018-06-13T02:14:01.282Z,76.03
2018-06-13T02:15:10.147Z,76.21
2018-06-13T02:16:19.279Z,76.79
2018-06-13T02:17:28.292Z,76.88
2018-06-13T02:18:37.428Z,76.21
2018-06-13T02:19:46.289Z,76.31
2018-06-13T02:20:55.420Z,76.03
2018-06-13T02:22:04.278Z,76.4
2018-06-13T02:23:13.424Z,76.79
2018-06-13T02:24:22.285Z,76.6
2018-06-13T02:25:31.143Z,76.4
2018-06-13T02:26:40.006Z,76.5
2018-06-13T02:27:49.421Z,77.08
2018-06-13T02:28:58.326Z,77.08
2018-06-13T02:30:07.463Z,76.98
2018-06-13T02:31:16.901Z,77.17
2018-06-13T02:32:26.036Z,76.98
2018-06-13T02:33:34.896Z,76.79
2018-06-13T02:34:44.372Z,76.98
2018-06-13T02:35:53.513Z,76.69
2018-06-13T02:37:02.373Z,76.98
2018-06-13T02:38:11.236Z,76.69
2018-06-13T02:39:20.371Z,76.69
2018-06-13T02:40:29.560Z,77.17
2018-06-13T02:41:38.974Z,76.69
2018-06-13T02:42:48.110Z,76.98
2018-06-13T02:43:57.252Z,77.08
2018-06-13T02:45:06.399Z,76.98
2018-06-13T02:46:15.883Z,77.36
2018-06-13T02:47:25.027Z,77.08
2018-06-13T02:48:34.440Z,77.17
2018-06-13T02:49:43.302Z,77.55
2018-06-13T02:50:52.166Z,76.88
2018-06-13T02:52:01.331Z,77.08
2018-06-13T02:53:10.721Z,77.55
2018-06-13T02:54:19.863Z,77.65
2018-06-13T02:55:29.286Z,77.08
2018-06-13T02:56:38.144Z,77.65
2018-06-13T02:57:47.107Z,77.65
2018-06-13T02:58:56.537Z,77.55
2018-06-13T03:00:05.958Z,77.65
2018-06-13T03:01:15.374Z,77.74
2018-06-13T03:02:24.511Z,77.55
2018-06-13T03:03:33.655Z,77.26
2018-06-13T03:04:42.791Z,77.84
2018-06-13T03:05:51.929Z,77.84
2018-06-13T03:07:01.345Z,77.55
2018-06-13T03:08:10.758Z,77.55
2018-06-13T03:09:19.775Z,77.74
2018-06-13T03:10:29.192Z,77.55
2018-06-13T03:11:38.616Z,77.65
2018-06-13T03:12:47.476Z,77.84
2018-06-13T03:13:56.616Z,77.84
2018-06-13T03:15:05.530Z,77.65
2018-06-13T03:16:14.942Z,77.84
2018-06-13T03:17:24.625Z,77.84
2018-06-13T03:18:33.487Z,77.84
2018-06-13T03:19:42.346Z,77.74
2018-06-13T03:20:51.331Z,77.55
2018-06-13T03:22:00.829Z,77.74
2018-06-13T03:23:09.964Z,77.84
2018-06-13T03:24:18.821Z,78.13
2018-06-13T03:25:27.683Z,77.94
2018-06-13T03:26:37.192Z,77.94
2018-06-13T03:27:46.051Z,78.13
2018-06-13T03:28:55.198Z,78.03
2018-06-13T03:30:04.070Z,77.84
2018-06-13T03:31:13.209Z,78.22
2018-06-13T03:32:22.619Z,78.89
2018-06-13T03:33:31.479Z,77.94
2018-06-13T03:34:40.339Z,78.79
2018-06-13T03:35:49.474Z,78.6
2018-06-13T03:36:58.332Z,78.64
2018-06-13T03:38:07.439Z,78.6
2018-06-13T03:39:16.299Z,78.41
2018-06-13T03:40:25.162Z,78.22
2018-06-13T03:41:34.020Z,78.6
2018-06-13T03:42:43.159Z,78.79
2018-06-13T03:43:52.446Z,78.6
2018-06-13T03:45:01.871Z,78.6
2018-06-13T03:46:11.004Z,78.6
2018-06-13T03:47:19.863Z,78.51
2018-06-13T03:48:29.000Z,78.51
2018-06-13T03:49:38.310Z,78.79
2018-06-13T03:50:47.452Z,78.79
2018-06-13T03:51:56.320Z,78.6
2018-06-13T03:53:05.177Z,78.79
2018-06-13T03:54:14.312Z,79.08
2018-06-13T03:55:23.498Z,78.36
2018-06-13T03:56:32.359Z,78.83
2018-06-13T03:57:41.782Z,78.83
2018-06-13T03:58:50.639Z,78.41
2018-06-13T03:59:59.774Z,78.79
2018-06-13T04:01:08.983Z,78.41
2018-06-13T04:02:17.848Z,79.08
2018-06-13T04:03:26.710Z,79.08
2018-06-13T04:04:35.845Z,78.41
2018-06-13T04:05:44.704Z,79.08
2018-06-13T04:06:53.564Z,78.99
2018-06-13T04:08:02.699Z,78.64
2018-06-13T04:09:11.839Z,78.7
2018-06-13T04:10:20.700Z,78.99
2018-06-13T04:11:29.839Z,79.12
2018-06-13T04:12:38.694Z,79.22
2018-06-13T04:13:47.621Z,79.12
2018-06-13T04:14:57.108Z,79.12
2018-06-13T04:16:05.969Z,79.17
2018-06-13T04:17:14.829Z,79.27
2018-06-13T04:18:23.844Z,79.6
2018-06-13T04:19:32.702Z,79.12
2018-06-13T04:20:41.835Z,79.22
2018-06-13T04:21:50.700Z,79.69
2018-06-13T04:22:59.564Z,79.5
2018-06-13T04:24:08.978Z,79.6
2018-06-13T04:25:17.835Z,79.79
2018-06-13T04:26:26.697Z,79.5
2018-06-13T04:27:36.118Z,79.69
2018-06-13T04:28:44.976Z,79.98
2018-06-13T04:29:54.110Z,80.27
2018-06-13T04:31:02.970Z,79.88
2018-06-13T04:32:11.830Z,79.69
2018-06-13T04:33:20.691Z,80.17
2018-06-13T04:34:29.550Z,80.3
2018-06-13T04:35:38.568Z,80.79
2018-06-13T04:36:47.711Z,80.27
2018-06-13T04:37:56.572Z,80.3
2018-06-13T04:39:05.431Z,80.46
2018-06-13T04:40:14.291Z,80.65
2018-06-13T04:41:23.201Z,80.36
2018-06-13T04:42:32.062Z,80.84
2018-06-13T04:43:40.927Z,80.65
2018-06-13T04:44:50.065Z,80.17
2018-06-13T04:45:59.077Z,80.65
2018-06-13T04:47:07.952Z,80.74
2018-06-13T04:48:17.093Z,80.36
2018-06-13T04:49:25.953Z,80.36
2018-06-13T04:50:34.814Z,80.21
2018-06-13T04:51:43.674Z,80.5
2018-06-13T04:52:52.536Z,80.4
2018-06-13T04:54:01.673Z,80.3
2018-06-13T04:55:10.536Z,80.4
2018-06-13T04:56:19.672Z,80.65
2018-06-13T04:57:28.813Z,80.69
2018-06-13T04:58:37.674Z,80.69
2018-06-13T04:59:46.533Z,80.59
2018-06-13T05:00:55.394Z,80.3
2018-06-13T05:02:04.254Z,80.4
2018-06-13T05:03:13.400Z,80.21
2018-06-13T05:04:22.262Z,80.79
2018-06-13T05:05:31.120Z,80.3
2018-06-13T05:06:40.257Z,80.5
2018-06-13T05:07:49.132Z,80.69
2018-06-13T05:08:58.468Z,80.88
2018-06-13T05:10:07.992Z,80.69
2018-06-13T05:11:17.909Z,80.79
2018-06-13T05:12:27.981Z,80.63
2018-06-13T05:13:37.754Z,80.98
2018-06-13T05:14:47.144Z,80.79
2018-06-13T05:15:57.407Z,80.3
2018-06-13T05:17:06.939Z,80.88
2018-06-13T05:18:16.494Z,80.88
2018-06-13T05:19:25.632Z,80.98
2018-06-13T05:20:34.773Z,80.98
2018-06-13T05:21:44.194Z,80.79
2018-06-13T05:22:53.053Z,80.84
2018-06-13T05:24:01.915Z,80.55
2018-06-13T05:25:10.772Z,80.02
2018-06-13T05:26:19.633Z,80.27
2018-06-13T05:27:29.048Z,79.98
2018-06-13T05:28:37.920Z,79.31
2018-06-13T05:29:47.406Z,79.5
2018-06-13T05:30:56.263Z,79.22
2018-06-13T05:32:05.126Z,79.5
2018-06-13T05:33:13.985Z,78.83
2018-06-13T05:34:23.001Z,79.12
2018-06-13T05:35:32.276Z,79.22
2018-06-13T05:36:41.134Z,79.02
2018-06-13T05:37:49.995Z,79.12
2018-06-13T05:38:59.131Z,78.93
2018-06-13T05:40:08.091Z,78.55
2018-06-13T05:41:16.951Z,78.55
2018-06-13T05:42:25.811Z,78.83
2018-06-13T05:43:34.668Z,78.55
2018-06-13T05:44:43.600Z,79.02
2018-06-13T05:45:52.559Z,78.93
2018-06-13T05:47:01.423Z,79.12
2018-06-13T05:48:10.286Z,79.22
2018-06-13T05:49:19.150Z,78.83
2018-06-13T05:50:28.010Z,78.87
2018-06-13T05:51:37.025Z,78.97
2018-06-13T05:52:45.893Z,78.87
2018-06-13T05:53:54.749Z,78.97
2018-06-13T05:55:03.610Z,79.44
2018-06-13T05:56:12.470Z,79.06
2018-06-13T05:57:21.331Z,79.06
2018-06-13T05:58:30.190Z,79.16
2018-06-13T05:59:39.051Z,79.25
2018-06-13T06:00:47.912Z,78.97
2018-06-13T06:01:56.773Z,79.06
2018-06-13T06:03:06.266Z,79.54
2018-06-13T06:04:15.134Z,79.25
2018-06-13T06:05:23.995Z,79.16
2018-06-13T06:06:33.135Z,79.44
2018-06-13T06:07:41.995Z,79.25
2018-06-13T06:08:51.486Z,79.35
2018-06-13T06:10:00.341Z,79.93
2018-06-13T06:11:09.205Z,79.35
2018-06-13T06:12:18.065Z,79.44
2018-06-13T06:13:26.927Z,79.64
2018-06-13T06:14:35.942Z,79.25
2018-06-13T06:15:44.800Z,79.44
2018-06-13T06:16:53.941Z,80.06
2018-06-13T06:18:03.079Z,79.83
2018-06-13T06:19:11.952Z,80.02
2018-06-13T06:20:21.538Z,79.68
2018-06-13T06:21:30.403Z,80.25
2018-06-13T06:22:39.264Z,80.02
2018-06-13T06:23:48.123Z,80.4
2018-06-13T06:24:57.264Z,80.21
2018-06-13T06:26:06.661Z,80.4
2018-06-13T06:27:15.523Z,80.35
2018-06-13T06:28:24.388Z,80.21
2018-06-13T06:29:33.248Z,80.3
2018-06-13T06:30:42.396Z,80.5
2018-06-13T06:31:51.304Z,80.02
2018-06-13T06:33:00.441Z,80.21
2018-06-13T06:34:09.302Z,80.3
2018-06-13T06:35:18.164Z,80.4
2018-06-13T06:36:27.025Z,80.21
2018-06-13T06:37:36.037Z,80.3
2018-06-13T06:38:44.897Z,80.5
2018-06-13T06:39:53.757Z,80.21
2018-06-13T06:41:02.617Z,80.02
2018-06-13T06:42:11.826Z,80.11
2018-06-13T06:43:20.711Z,80.3
2018-06-13T06:44:29.573Z,79.35
2018-06-13T06:45:38.431Z,79.93
2018-06-13T06:46:47.292Z,79.73
2018-06-13T06:47:56.420Z,79.93
2018-06-13T06:49:05.707Z,80.11
2018-06-13T06:50:14.847Z,80.11
2018-06-13T06:51:23.995Z,79.93
2018-06-13T06:52:32.861Z,80.02
2018-06-13T06:53:42.009Z,79.83
2018-06-13T06:54:51.117Z,79.35
2018-06-13T06:55:59.977Z,79
2018-06-13T06:57:09.121Z,79.64
2018-06-13T06:58:18.001Z,79.16
2018-06-13T06:59:26.860Z,78.11
2018-06-13T07:00:35.872Z,77.92
2018-06-13T07:01:44.734Z,76.86
2018-06-13T07:02:53.597Z,77.06
2018-06-13T07:04:02.457Z,77.06
2018-06-13T07:05:11.316Z,76.39
2018-06-13T07:06:20.377Z,75.91
2018-06-13T07:07:29.792Z,75.87
2018-06-13T07:08:38.654Z,75.34
2018-06-13T07:09:47.514Z,75.87
2018-06-13T07:10:56.373Z,75.71
2018-06-13T07:12:05.870Z,75.78
2018-06-13T07:13:15.047Z,75.87
2018-06-13T07:14:23.874Z,75.39
2018-06-13T07:15:32.735Z,74.15
2018-06-13T07:16:41.875Z,74.82
2018-06-13T07:17:50.835Z,73.48
2018-06-13T07:19:00.017Z,74.44
2018-06-13T07:20:08.842Z,72.91
2018-06-13T07:21:17.701Z,72.05
2018-06-13T07:22:26.563Z,71
2018-06-13T07:23:35.474Z,70.61
2018-06-13T07:24:44.677Z,68.99
2018-06-13T07:25:53.476Z,68.99
2018-06-13T07:27:02.340Z,68.8
2018-06-13T07:28:11.198Z,69.37
2018-06-13T07:29:20.209Z,70.04
2018-06-13T07:30:29.072Z,69.37
2018-06-13T07:31:38.210Z,69.47
2018-06-13T07:32:47.347Z,69.09
2018-06-13T07:33:56.210Z,68.9
2018-06-13T07:35:05.172Z,68.61
2018-06-13T07:36:14.030Z,68.51
2018-06-13T07:37:23.450Z,69.02
2018-06-13T07:38:32.311Z,68.93
2018-06-13T07:39:41.173Z,70.07
2018-06-13T07:40:50.409Z,69.6
2018-06-13T07:41:59.550Z,69.79
2018-06-13T07:43:08.688Z,70.17
2018-06-13T07:44:17.550Z,69.6
2018-06-13T07:45:26.413Z,70.65
2018-06-13T07:46:35.623Z,70.36
2018-06-13T07:47:44.491Z,71.03
2018-06-13T07:48:53.353Z,71.8
2018-06-13T07:50:02.509Z,71.32
2018-06-13T07:51:11.651Z,72.56
2018-06-13T07:52:20.611Z,72.94
2018-06-13T07:53:29.757Z,73.14
2018-06-13T07:54:38.619Z,73.14
2018-06-13T07:55:47.479Z,73.14
2018-06-13T07:56:56.342Z,72.88
2018-06-13T07:58:05.552Z,73.23
2018-06-13T07:59:14.412Z,72.88
2018-06-13T08:00:23.276Z,73.84
2018-06-13T08:01:32.153Z,73.75
2018-06-13T08:02:41.292Z,73.55
2018-06-13T08:03:50.505Z,74.13
2018-06-13T08:04:59.370Z,74.26
2018-06-13T08:06:08.230Z,75.12
2018-06-13T08:07:17.371Z,75.18
2018-06-13T08:08:26.260Z,75.76
2018-06-13T08:09:35.739Z,76.27
2018-06-13T08:10:44.882Z,75.7
2018-06-13T08:11:53.744Z,76.94
2018-06-13T08:13:02.607Z,76.62
2018-06-13T08:14:11.467Z,76.84
2018-06-13T08:15:20.429Z,77.23
2018-06-13T08:16:29.571Z,77.7
2018-06-13T08:17:38.431Z,78.38
2018-06-13T08:18:47.293Z,78.47
2018-06-13T08:19:56.431Z,78.47
2018-06-13T08:21:05.396Z,78.95
2018-06-13T08:22:14.256Z,78.57
2018-06-13T08:23:23.118Z,79.91
2018-06-13T08:24:31.981Z,80.87
2018-06-13T08:25:40.840Z,81.54
2018-06-13T08:26:49.809Z,81
2018-06-13T08:27:58.672Z,80.43
2018-06-13T08:29:07.809Z,81.67
2018-06-13T08:30:16.672Z,81
2018-06-13T08:31:25.535Z,81.29
2018-06-13T08:32:34.549Z,82.43
2018-06-13T08:33:44.021Z,81.86
2018-06-13T08:34:53.225Z,83.01
2018-06-13T08:36:02.090Z,83.11
2018-06-13T08:37:10.957Z,83.78
2018-06-13T08:38:19.866Z,83.39
2018-06-13T08:39:29.008Z,83.39
2018-06-13T08:40:37.871Z,84.11
2018-06-13T08:41:47.012Z,83.63
2018-06-13T08:42:55.881Z,83.72
2018-06-13T08:44:04.889Z,84.3
2018-06-13T08:45:13.751Z,84.3
2018-06-13T08:46:22.614Z,84.11
2018-06-13T08:47:31.482Z,84.58
2018-06-13T08:48:40.675Z,84.97
2018-06-13T08:49:50.298Z,84.2
2018-06-13T08:50:59.443Z,84.78
2018-06-13T08:52:08.581Z,84.78
2018-06-13T08:53:17.724Z,84.2
2018-06-13T08:54:26.586Z,84.78
2018-06-13T08:55:35.549Z,85.25
2018-06-13T08:56:44.764Z,84.68
2018-06-13T08:57:53.626Z,84.82
2018-06-13T08:59:02.486Z,84.05
2018-06-13T09:00:11.346Z,84.63
2018-06-13T09:01:20.261Z,84.82
2018-06-13T09:02:29.125Z,85.39
2018-06-13T09:03:38.268Z,84.91
2018-06-13T09:04:47.133Z,84.91
2018-06-13T09:05:56.000Z,84.82
2018-06-13T09:07:05.013Z,84.34
2018-06-13T09:08:14.156Z,85.01
2018-06-13T09:09:23.296Z,84.82
2018-06-13T09:10:32.172Z,84.72
2018-06-13T09:11:41.039Z,84.25
2018-06-13T09:12:50.517Z,83.48
2018-06-13T09:13:59.380Z,83.86
2018-06-13T09:15:08.243Z,84.82
2018-06-13T09:16:17.106Z,83.86
2018-06-13T09:17:25.971Z,83.52
2018-06-13T09:18:34.833Z,83.38
2018-06-13T09:19:43.977Z,83.81
2018-06-13T09:20:52.837Z,84.25
2018-06-13T09:22:01.976Z,83.14
2018-06-13T09:23:11.388Z,83.67
2018-06-13T09:24:20.253Z,84.09
2018-06-13T09:25:29.115Z,82.65
2018-06-13T09:26:37.981Z,83.42
2018-06-13T09:27:47.133Z,83.71
2018-06-13T09:28:56.274Z,83.52
2018-06-13T09:30:05.389Z,83.67
2018-06-13T09:31:14.665Z,83.42
2018-06-13T09:32:23.821Z,83.91
2018-06-13T09:33:32.968Z,84.28
2018-06-13T09:34:41.829Z,83.61
2018-06-13T09:35:51.223Z,83.14
2018-06-13T09:37:00.089Z,83.61
2018-06-13T09:38:08.955Z,84.38
2018-06-13T09:39:17.818Z,83.71
2018-06-13T09:40:26.682Z,84.67
2018-06-13T09:41:35.801Z,84
2018-06-13T09:42:44.665Z,82.75
2018-06-13T09:43:53.544Z,81.98
2018-06-13T09:45:02.394Z,82.08
2018-06-13T09:46:12.144Z,83.23
2018-06-13T09:47:26.203Z,82.18
2018-06-13T09:48:35.059Z,81.51
2018-06-13T09:49:43.925Z,81.6
2018-06-13T09:50:52.785Z,81.22
2018-06-13T09:52:01.648Z,80.35
2018-06-13T09:53:10.761Z,81.31
2018-06-13T09:54:19.623Z,81.22
2018-06-13T09:55:28.488Z,81.02
2018-06-13T09:56:37.353Z,81.41
2018-06-13T09:57:46.215Z,80.64
2018-06-13T09:58:55.227Z,80.26
2018-06-13T10:00:04.090Z,80.07
2018-06-13T10:01:12.952Z,79.88
2018-06-13T10:02:21.816Z,80.55
2018-06-13T10:03:30.680Z,80.93
2018-06-13T10:04:39.745Z,80.83
2018-06-13T10:05:48.904Z,81.12
2018-06-13T10:06:57.765Z,80.45
2018-06-13T10:08:06.631Z,81.12
2018-06-13T10:09:15.770Z,81.98
2018-06-13T10:10:24.638Z,82.23
2018-06-13T10:11:33.500Z,82.62
2018-06-13T10:12:42.360Z,82.9
2018-06-13T10:13:51.229Z,83.23
2018-06-13T10:15:00.369Z,82.62
2018-06-13T10:16:09.231Z,82.46
2018-06-13T10:17:18.094Z,83.48
2018-06-13T10:18:26.959Z,84.09
2018-06-13T10:19:35.823Z,84.72
2018-06-13T10:20:44.968Z,85.01
2018-06-13T10:21:53.931Z,85.49
2018-06-13T10:23:03.351Z,85.39
2018-06-13T10:24:12.224Z,85.21
2018-06-13T10:25:21.396Z,86.35
2018-06-13T10:26:30.232Z,85.58
2018-06-13T10:27:39.194Z,85.39
2018-06-13T10:28:48.082Z,85.21
2018-06-13T10:29:57.237Z,85.3
2018-06-13T10:31:06.102Z,85.88
2018-06-13T10:32:15.245Z,86.16
2018-06-13T10:33:24.108Z,85.97
2018-06-13T10:34:32.971Z,86.16
2018-06-13T10:35:41.834Z,86.25
2018-06-13T10:36:50.696Z,86.07
2018-06-13T10:37:59.837Z,86.11
2018-06-13T10:39:08.746Z,86.01
2018-06-13T10:40:17.609Z,85.53
2018-06-13T10:41:26.747Z,85.44
2018-06-13T10:42:35.610Z,84.91
2018-06-13T10:43:44.476Z,85.48
2018-06-13T10:44:53.816Z,85.58
2018-06-13T10:46:02.679Z,86.15
2018-06-13T10:47:11.818Z,85.53
2018-06-13T10:48:20.705Z,85.77
2018-06-13T10:49:29.856Z,85.38
2018-06-13T10:50:38.769Z,86.34
2018-06-13T10:51:47.636Z,86.15
2018-06-13T10:52:56.501Z,85.77
2018-06-13T10:54:05.363Z,85.77
2018-06-13T10:55:14.227Z,85.58
2018-06-13T10:56:23.141Z,85.28
2018-06-13T10:57:32.006Z,85.72
2018-06-13T10:58:40.867Z,86.15
2018-06-13T10:59:49.730Z,85.96
2018-06-13T11:00:58.594Z,85.82
2018-06-13T11:02:07.562Z,86.11
2018-06-13T11:03:16.425Z,86.34
2018-06-13T11:04:25.288Z,86.05
2018-06-13T11:05:34.152Z,85.77
2018-06-13T11:06:43.016Z,86.44
2018-06-13T11:07:52.204Z,85.86
2018-06-13T11:09:01.349Z,85.86
2018-06-13T11:10:10.213Z,85.58
2018-06-13T11:11:19.081Z,85.86
2018-06-13T11:12:27.942Z,85.38
2018-06-13T11:13:36.853Z,85.19
2018-06-13T11:14:45.717Z,84.23
2018-06-13T11:15:54.581Z,84.91
2018-06-13T11:17:03.748Z,84.86
2018-06-13T11:18:12.609Z,85.34
2018-06-13T11:19:21.627Z,84.86
2018-06-13T11:20:30.879Z,83.71
2018-06-13T11:21:39.741Z,84.58
2018-06-13T11:22:48.604Z,84.38
2018-06-13T11:23:57.743Z,83.91
2018-06-13T11:25:06.991Z,83.04
2018-06-13T11:26:16.131Z,83.52
2018-06-13T11:27:25.274Z,83.71
2018-06-13T11:28:34.141Z,83.56
2018-06-13T11:29:43.005Z,83.47
2018-06-13T11:30:52.018Z,84.14
2018-06-13T11:32:00.882Z,83.94
2018-06-13T11:33:09.743Z,84.23
2018-06-13T11:34:18.886Z,84.61
2018-06-13T11:35:27.750Z,84.14
2018-06-13T11:36:36.812Z,83.91
2018-06-13T11:37:45.678Z,82.46
2018-06-13T11:38:54.546Z,81.79
2018-06-13T11:40:03.411Z,82.08
2018-06-13T11:41:12.551Z,82.37
2018-06-13T11:42:21.821Z,82.65
2018-06-13T11:43:30.722Z,82.75
2018-06-13T11:44:39.831Z,83.42
2018-06-13T11:45:48.696Z,83.23
2018-06-13T11:46:57.794Z,82.56
2018-06-13T11:48:07.066Z,82.56
2018-06-13T11:49:16.059Z,82.37
2018-06-13T11:50:25.117Z,82.37
2018-06-13T11:51:34.222Z,82.37
2018-06-13T11:52:43.086Z,82.75
2018-06-13T11:53:52.098Z,82.94
2018-06-13T11:55:00.959Z,82.56
2018-06-13T11:56:10.109Z,82.89
2018-06-13T11:57:18.972Z,82.51
2018-06-13T11:58:27.833Z,82.79
2018-06-13T11:59:36.796Z,83.85
2018-06-13T12:00:45.659Z,83.94
2018-06-13T12:01:54.537Z,84.91
2018-06-13T12:03:03.400Z,83.27
2018-06-13T12:04:12.344Z,83.18
2018-06-13T12:05:21.227Z,84.42
2018-06-13T12:06:30.091Z,84.71
2018-06-13T12:07:38.957Z,85.58
2018-06-13T12:08:47.839Z,85.58
2018-06-13T12:09:56.795Z,85.58
2018-06-13T12:11:05.662Z,86.15
2018-06-13T12:12:14.807Z,85.77
2018-06-13T12:13:23.674Z,85.77
2018-06-13T12:14:32.534Z,86.25
2018-06-13T12:15:41.397Z,86.25
2018-06-13T12:16:50.297Z,86.25
2018-06-13T12:17:59.123Z,86.05
2018-06-13T12:19:07.987Z,85.96
2018-06-13T12:20:16.852Z,85.96
2018-06-13T12:21:25.716Z,86.25
2018-06-13T12:22:34.616Z,86.25
2018-06-13T12:23:43.742Z,85.28
2018-06-13T12:24:52.880Z,84.91
2018-06-13T12:26:02.069Z,85.67
2018-06-13T12:27:10.933Z,85.48
2018-06-13T12:28:19.795Z,84.95
2018-06-13T12:29:28.951Z,84.23
2018-06-13T12:30:38.246Z,83.47
2018-06-13T12:31:47.108Z,83.08
2018-06-13T12:32:55.970Z,83.47
2018-06-13T12:34:04.833Z,82.41
2018-06-13T12:35:14.319Z,82.41
2018-06-13T12:36:23.431Z,82.7
2018-06-13T12:37:32.574Z,82.79
2018-06-13T12:38:41.716Z,82.03
2018-06-13T12:39:50.856Z,80.97
2018-06-13T12:40:59.717Z,80.78
2018-06-13T12:42:08.579Z,80.4
2018-06-13T12:43:17.735Z,79.53
2018-06-13T12:44:26.597Z,79.72
2018-06-13T12:45:35.536Z,80.49
2018-06-13T12:46:44.705Z,79.34
2018-06-13T12:47:53.899Z,80.01
2018-06-13T12:49:03.323Z,79.53
2018-06-13T12:50:12.191Z,78.7
2018-06-13T12:51:21.057Z,78.52
2018-06-13T12:52:29.923Z,77.75
2018-06-13T12:53:39.137Z,78.03
2018-06-13T12:54:48.003Z,77.65
2018-06-13T12:55:56.867Z,78.03
2018-06-13T12:57:05.735Z,78.03
2018-06-13T12:58:14.877Z,77.59
2018-06-13T12:59:23.744Z,77.69
2018-06-13T13:00:33.169Z,76.48
2018-06-13T13:01:42.038Z,76.57
2018-06-13T13:02:50.906Z,76.39
2018-06-13T13:03:59.772Z,76.52
2018-06-13T13:05:08.639Z,75.75
2018-06-13T13:06:17.506Z,75.56
2018-06-13T13:07:26.651Z,75.56
2018-06-13T13:08:35.517Z,74.6
2018-06-13T13:09:44.386Z,74.73
2018-06-13T13:10:53.402Z,74.25
2018-06-13T13:12:03.286Z,73.99
2018-06-13T13:13:12.547Z,73.22
2018-06-13T13:14:21.416Z,72.84
2018-06-13T13:15:30.284Z,73.57
2018-06-13T13:16:39.307Z,75.02
2018-06-13T13:17:48.264Z,74.3
2018-06-13T13:18:57.318Z,75.07
2018-06-13T13:20:06.195Z,76.04
2018-06-13T13:21:15.686Z,76.52
2018-06-13T13:22:24.656Z,76.61
2018-06-13T13:23:33.524Z,76.86
2018-06-13T13:24:42.392Z,76.77
2018-06-13T13:25:51.536Z,77.25
2018-06-13T13:27:00.679Z,76.77
2018-06-13T13:28:09.705Z,77.06
2018-06-13T13:29:18.843Z,76.57
2018-06-13T13:30:27.708Z,76.77
2018-06-13T13:31:36.572Z,75.71
2018-06-13T13:32:45.438Z,75.81
2018-06-13T13:33:54.658Z,75.52
2018-06-13T13:35:03.810Z,75.52
2018-06-13T13:36:12.671Z,74.94
2018-06-13T13:37:21.538Z,74.75
2018-06-13T13:38:30.403Z,74.37
2018-06-13T13:39:39.690Z,74.94
2018-06-13T13:40:48.557Z,74.75
2018-06-13T13:41:57.432Z,73.79
2018-06-13T13:43:06.296Z,73.79
2018-06-13T13:44:15.177Z,74.5
2018-06-13T13:45:25.258Z,74.3
2018-06-13T13:46:35.961Z,74.11
2018-06-13T13:47:44.826Z,73.73
2018-06-13T13:48:53.693Z,73.54
2018-06-13T13:50:02.561Z,73.57
2018-06-13T13:51:11.499Z,73.63
2018-06-13T13:52:20.368Z,74.02
2018-06-13T13:53:29.234Z,74.02
2018-06-13T13:54:38.394Z,73.54
2018-06-13T13:55:47.543Z,73.63
2018-06-13T13:56:56.510Z,73.6
2018-06-13T13:58:05.383Z,73.21
2018-06-13T13:59:14.254Z,73.5
2018-06-13T14:00:23.119Z,73.21
2018-06-13T14:01:31.994Z,72.73
2018-06-13T14:02:40.860Z,73.6
2018-06-13T14:03:49.928Z,73.11
2018-06-13T14:04:59.124Z,73.21
2018-06-13T14:06:08.317Z,73.41
2018-06-13T14:07:17.186Z,73.18
2018-06-13T14:08:26.051Z,72.99
2018-06-13T14:09:34.919Z,73.27
2018-06-13T14:10:44.066Z,73.56
2018-06-13T14:11:53.233Z,73.56
2018-06-13T14:13:02.097Z,73.56
2018-06-13T14:14:10.961Z,73.56
2018-06-13T14:15:19.824Z,72.92
2018-06-13T14:16:28.692Z,72.83
2018-06-13T14:17:37.557Z,72.06
2018-06-13T14:18:46.421Z,71.67
2018-06-13T14:19:55.565Z,72.25
2018-06-13T14:21:04.428Z,70.07
2018-06-13T14:22:13.718Z,69.82
2018-06-13T14:23:22.880Z,69.73
2018-06-13T14:24:31.746Z,68.41
2018-06-13T14:25:40.615Z,67.74
2018-06-13T14:26:49.491Z,66.14
2018-06-13T14:27:58.510Z,65.85
2018-06-13T14:29:07.666Z,64.92
2018-06-13T14:30:16.539Z,64.34
2018-06-13T14:31:25.416Z,64.56
2018-06-13T14:32:34.568Z,64.47
2018-06-13T14:33:43.592Z,64.86
2018-06-13T14:34:52.471Z,62.93
2018-06-13T14:36:01.385Z,64.66
2018-06-13T14:37:10.213Z,64.08
2018-06-13T14:38:19.085Z,64.18
2018-06-13T14:39:27.958Z,64.66
2018-06-13T14:40:37.123Z,64.31
2018-06-13T14:41:46.271Z,64.05
2018-06-13T14:42:55.144Z,63.95
2018-06-13T14:44:04.018Z,64.37
2018-06-13T14:45:13.339Z,63.76
2018-06-13T14:46:22.501Z,63.95
2018-06-13T14:47:31.377Z,63.79
2018-06-13T14:48:40.251Z,64.66
2018-06-13T14:49:49.125Z,65.69
2018-06-13T14:50:58.450Z,65.27
2018-06-13T14:52:07.322Z,64.89